Nyk Constellation — V7NP4 — position and weather

sailwx.info

Track history (hours):
 
Tides and Currents Weather Stations Pressure Air Temp Water Temp Dewpoint Dewpoint Depression Visibility Wind Speed Wind Dir Waves Ship Positions

Nyk Constellation

Last reported at 2017-Feb-22 14:33 UTC. Time now 2017-Feb-23 07:03 UTC.
Position N 36°47' W 075°43'.

Length 294 m; draft 12.3 m.

Type: Cargo ship. MMSI: 538002992.

Date/timePositionNaut miles runAvg speedWind from/ knotsBaromVisibWave heightAir tempDewpointWater temp
2017-Feb-22 14:33N 36°47' W 075°43'10 9.5
2017-Feb-22 13:31N 36°52' W 075°53'8 8.7
2017-Feb-22 12:34N 36°57' W 076°01'1210.1
2017-Feb-22 11:22N 37°00' W 076°16'6 7.3
2017-Feb-22 10:33N 36°56' W 076°20'0 0.3
2017-Feb-22 09:31N 36°56' W 076°20'0 0.0
2017-Feb-22 08:31N 36°56' W 076°20'0 0.0
2017-Feb-22 07:31N 36°56' W 076°20'0 0.0
2017-Feb-22 06:31N 36°56' W 076°20'0 0.0
2017-Feb-22 05:31N 36°56' W 076°20'0 0.0
2017-Feb-21 23:12N 36°56' W 076°20'1 1.8
2017-Feb-21 22:33N 36°57' W 076°20'1110.7
2017-Feb-21 21:33N 36°59' W 076°07'1110.7
2017-Feb-21 20:33N 36°55' W 075°54'8 8.0
2017-Feb-21 19:32N 36°50' W 075°46'23013.5
2017-Feb-21 02:33N 40°21' W 073°49'8 8.2
2017-Feb-21 01:33N 40°28' W 073°53'1111.0
2017-Feb-21 00:33N 40°36' W 074°03'5 5.4
2017-Feb-20 23:33N 40°39' W 074°09'2 1.6
2017-Feb-20 22:33N 40°39' W 074°11'0 0.0
2017-Feb-20 21:33N 40°39' W 074°11'0 0.0
2017-Feb-20 20:33N 40°39' W 074°11'0 0.0
2017-Feb-20 19:33N 40°39' W 074°11'0 0.0
2017-Feb-20 18:33N 40°39' W 074°11'0 0.0
2017-Feb-20 17:30N 40°39' W 074°11'0 0.0
2017-Feb-20 16:33N 40°39' W 074°11'0 0.0
2017-Feb-20 15:33N 40°39' W 074°11'0 0.0
2017-Feb-20 14:30N 40°39' W 074°11'0 0.0
2017-Feb-20 13:33N 40°39' W 074°11'0 0.0
2017-Feb-20 12:33N 40°39' W 074°11'0 0.0
2017-Feb-20 11:33N 40°39' W 074°11'0 0.3
2017-Feb-20 10:34N 40°39' W 074°11'6 5.9
2017-Feb-20 09:34N 40°38' W 074°03'1110.9
2017-Feb-20 08:33N 40°29' W 073°55'8 8.1
2017-Feb-20 07:32N 40°27' W 073°44'8 8.2
2017-Feb-20 06:32N 40°28' W 073°34'  
Track history (hours):
 
Tides and Currents Weather Stations Pressure Air Temp Water Temp Dewpoint Dewpoint Depression Visibility Wind Speed Wind Dir Waves Ship Positions

Nyk Constellation

Last reported at 2017-Feb-22 14:33 UTC. Time now 2017-Feb-23 07:03 UTC.
Position N 36°47' W 075°43'.

Length 294 m; draft 12.3 m.

Type: Cargo ship. MMSI: 538002992.

Date/timePositionNaut miles runAvg speedWind from/ knotsBaromVisibWave heightAir tempDewpointWater temp
2017-Feb-22 14:33N 36°47' W 075°43'10 9.5
2017-Feb-22 13:31N 36°52' W 075°53'8 8.7
2017-Feb-22 12:34N 36°57' W 076°01'1210.1
2017-Feb-22 11:22N 37°00' W 076°16'6 7.3
2017-Feb-22 10:33N 36°56' W 076°20'0 0.3
2017-Feb-22 09:31N 36°56' W 076°20'0 0.0
2017-Feb-22 08:31N 36°56' W 076°20'0 0.0
2017-Feb-22 07:31N 36°56' W 076°20'0 0.0
2017-Feb-22 06:31N 36°56' W 076°20'0 0.0
2017-Feb-22 05:31N 36°56' W 076°20'0 0.0
2017-Feb-21 23:12N 36°56' W 076°20'1 1.8
2017-Feb-21 22:33N 36°57' W 076°20'1110.7
2017-Feb-21 21:33N 36°59' W 076°07'1110.7
2017-Feb-21 20:33N 36°55' W 075°54'8 8.0
2017-Feb-21 19:32N 36°50' W 075°46'23013.5
2017-Feb-21 02:33N 40°21' W 073°49'8 8.2
2017-Feb-21 01:33N 40°28' W 073°53'1111.0
2017-Feb-21 00:33N 40°36' W 074°03'5 5.4
2017-Feb-20 23:33N 40°39' W 074°09'2 1.6
2017-Feb-20 22:33N 40°39' W 074°11'0 0.0
2017-Feb-20 21:33N 40°39' W 074°11'0 0.0
2017-Feb-20 20:33N 40°39' W 074°11'0 0.0
2017-Feb-20 19:33N 40°39' W 074°11'0 0.0
2017-Feb-20 18:33N 40°39' W 074°11'0 0.0
2017-Feb-20 17:30N 40°39' W 074°11'0 0.0
2017-Feb-20 16:33N 40°39' W 074°11'0 0.0
2017-Feb-20 15:33N 40°39' W 074°11'0 0.0
2017-Feb-20 14:30N 40°39' W 074°11'0 0.0
2017-Feb-20 13:33N 40°39' W 074°11'0 0.0
2017-Feb-20 12:33N 40°39' W 074°11'0 0.0
2017-Feb-20 11:33N 40°39' W 074°11'0 0.3
2017-Feb-20 10:34N 40°39' W 074°11'6 5.9
2017-Feb-20 09:34N 40°38' W 074°03'1110.9
2017-Feb-20 08:33N 40°29' W 073°55'8 8.1
2017-Feb-20 07:32N 40°27' W 073°44'8 8.2
2017-Feb-20 06:32N 40°28' W 073°34'  

Dump ship's entire track history